createdAt,value
2023-03-12T00:00:14.460Z,74.25
2023-03-12T00:02:41.204Z,74.46
2023-03-12T00:05:08.520Z,74.81
2023-03-12T00:07:36.895Z,74.81
2023-03-12T00:10:05.667Z,74.61
2023-03-12T00:12:32.691Z,74.69
2023-03-12T00:14:59.591Z,74.84
2023-03-12T00:17:26.431Z,74.85
2023-03-12T00:19:54.015Z,74.75
2023-03-12T00:22:23.110Z,74.23
2023-03-12T00:24:52.455Z,74.14
2023-03-12T00:27:20.319Z,73.65
2023-03-12T00:29:47.112Z,73.40
2023-03-12T00:32:14.431Z,73.11
2023-03-12T00:34:41.296Z,72.72
2023-03-12T00:37:08.752Z,72.79
2023-03-12T00:39:35.829Z,72.92
2023-03-12T00:42:02.816Z,72.70
2023-03-12T00:44:29.581Z,72.77
2023-03-12T00:46:56.339Z,73.20
2023-03-12T00:49:23.159Z,73.79
2023-03-12T00:51:50.039Z,73.69
2023-03-12T00:54:16.874Z,73.55
2023-03-12T00:56:43.829Z,73.56
2023-03-12T00:59:10.620Z,73.65
2023-03-12T01:01:37.402Z,73.61
2023-03-12T01:04:04.568Z,73.65
2023-03-12T01:06:31.624Z,73.81
2023-03-12T01:08:58.695Z,74.14
2023-03-12T01:11:25.517Z,74.08
2023-03-12T01:13:52.345Z,74.14
2023-03-12T01:16:19.152Z,74.36
2023-03-12T01:18:46.200Z,74.23
2023-03-12T01:21:13.065Z,73.69
2023-03-12T01:23:39.845Z,73.30
2023-03-12T01:26:06.585Z,73.22
2023-03-12T01:28:33.300Z,72.87
2023-03-12T01:31:12.539Z,72.04
2023-03-12T01:33:40.273Z,71.96
2023-03-12T01:36:18.531Z,71.96
2023-03-12T01:38:45.713Z,72.33
2023-03-12T01:41:13.141Z,72.62
2023-03-12T01:43:40.549Z,72.75
2023-03-12T01:46:38.741Z,72.44
2023-03-12T01:49:27.450Z,72.36
2023-03-12T01:52:12.968Z,72.50
2023-03-12T01:54:52.293Z,72.96
2023-03-12T01:57:27.041Z,72.70
2023-03-12T01:59:59.964Z,72.83
2023-03-12T02:02:28.845Z,72.80
2023-03-12T02:05:08.920Z,73.06
2023-03-12T02:07:36.137Z,73.01
2023-03-12T02:10:04.778Z,72.99
2023-03-12T02:12:32.574Z,73.05
2023-03-12T02:14:59.446Z,73.01
2023-03-12T02:17:26.378Z,72.93
2023-03-12T02:19:55.466Z,73.31
2023-03-12T02:22:23.119Z,73.18
2023-03-12T02:24:57.553Z,73.34
2023-03-12T02:27:24.956Z,73.40
2023-03-12T02:29:52.151Z,73.46
2023-03-12T02:32:26.841Z,73.17
2023-03-12T02:34:53.958Z,73.05
2023-03-12T02:37:20.747Z,73.04
2023-03-12T02:39:57.659Z,73.44
2023-03-12T02:42:25.076Z,73.57
2023-03-12T02:44:52.591Z,73.93
2023-03-12T02:47:19.450Z,74.17
2023-03-12T02:49:46.639Z,74.25
2023-03-12T02:52:13.450Z,74.29
2023-03-12T02:54:40.371Z,74.37
2023-03-12T02:57:07.131Z,74.42
2023-03-12T02:59:34.525Z,74.87
2023-03-12T03:02:02.235Z,75.15
2023-03-12T03:04:31.084Z,75.40
2023-03-12T03:06:58.035Z,75.45
2023-03-12T03:09:25.340Z,75.54
2023-03-12T03:11:52.897Z,75.55
2023-03-12T03:14:20.060Z,75.51
2023-03-12T03:16:48.349Z,75.59
2023-03-12T03:19:15.169Z,75.71
2023-03-12T03:21:41.972Z,75.80
2023-03-12T03:24:08.781Z,75.84
2023-03-12T03:26:35.822Z,75.84
2023-03-12T03:29:03.092Z,75.84
2023-03-12T03:31:30.083Z,76.02
2023-03-12T03:33:57.293Z,76.01
2023-03-12T03:36:24.099Z,76.25
2023-03-12T03:38:59.654Z,76.39
2023-03-12T03:41:27.076Z,76.63
2023-03-12T03:43:58.556Z,76.57
2023-03-12T03:46:26.803Z,76.75
2023-03-12T03:48:58.898Z,76.76
2023-03-12T03:51:26.955Z,76.88
2023-03-12T03:53:56.348Z,76.92
2023-03-12T03:56:23.276Z,76.98
2023-03-12T03:58:50.232Z,77.11
2023-03-12T04:01:18.426Z,77.21
2023-03-12T04:03:45.755Z,77.20
2023-03-12T04:06:13.104Z,77.29
2023-03-12T04:08:40.971Z,77.18
2023-03-12T04:11:14.944Z,77.05
2023-03-12T04:13:41.968Z,77.12
2023-03-12T04:16:10.310Z,77.18
2023-03-12T04:18:37.711Z,77.07
2023-03-12T04:21:07.308Z,77.14
2023-03-12T04:23:34.673Z,77.27
2023-03-12T04:26:01.691Z,77.36
2023-03-12T04:28:28.975Z,77.23
2023-03-12T04:31:01.728Z,77.25
2023-03-12T04:33:39.799Z,77.17
2023-03-12T04:36:08.027Z,76.78
2023-03-12T04:38:36.068Z,76.84
2023-03-12T04:41:08.086Z,76.77
2023-03-12T04:43:37.137Z,76.89
2023-03-12T04:46:05.275Z,76.90
2023-03-12T04:48:34.208Z,76.68
2023-03-12T04:51:03.267Z,76.67
2023-03-12T04:53:30.264Z,76.42
2023-03-12T04:55:57.807Z,76.12
2023-03-12T04:58:24.634Z,75.97
2023-03-12T05:00:51.874Z,75.80
2023-03-12T05:03:19.186Z,75.87
2023-03-12T05:05:46.147Z,75.77
2023-03-12T05:08:13.444Z,75.78
2023-03-12T05:10:45.235Z,75.64
2023-03-12T05:13:22.750Z,75.63
2023-03-12T05:15:52.240Z,75.51
2023-03-12T05:18:21.531Z,75.27
2023-03-12T05:20:59.585Z,74.98
2023-03-12T05:23:26.572Z,74.95
2023-03-12T05:25:53.921Z,74.91
2023-03-12T05:28:21.711Z,74.91
2023-03-12T05:30:48.749Z,74.96
2023-03-12T05:33:15.706Z,75.06
2023-03-12T05:35:42.566Z,75.08
2023-03-12T05:38:09.374Z,75.04
2023-03-12T05:40:36.213Z,74.90
2023-03-12T05:43:03.466Z,74.72
2023-03-12T05:45:30.581Z,74.77
2023-03-12T05:47:58.916Z,74.72
2023-03-12T05:50:27.720Z,74.47
2023-03-12T05:52:54.912Z,74.35
2023-03-12T05:55:21.766Z,74.04
2023-03-12T05:57:48.772Z,73.79
2023-03-12T06:00:16.465Z,73.55
2023-03-12T06:02:48.521Z,73.04
2023-03-12T06:05:15.544Z,73.16
2023-03-12T06:07:42.499Z,73.29
2023-03-12T06:10:10.141Z,72.91
2023-03-12T06:12:37.336Z,72.60
2023-03-12T06:15:05.452Z,72.50
2023-03-12T06:17:32.487Z,72.17
2023-03-12T06:19:59.721Z,72.04
2023-03-12T06:22:27.712Z,71.75
2023-03-12T06:24:55.206Z,71.38
2023-03-12T06:27:23.902Z,71.01
2023-03-12T06:29:51.590Z,70.70
2023-03-12T06:32:18.623Z,70.48
2023-03-12T06:34:45.628Z,69.98
2023-03-12T06:37:12.403Z,69.54
2023-03-12T06:39:39.286Z,69.19
2023-03-12T06:42:06.193Z,69.03
2023-03-12T06:44:33.321Z,68.94
2023-03-12T06:47:00.143Z,68.10
2023-03-12T06:49:27.509Z,67.96
2023-03-12T06:51:56.052Z,67.83
2023-03-12T06:54:22.841Z,68.00
2023-03-12T06:56:49.620Z,66.84
2023-03-12T06:59:16.384Z,66.62
2023-03-12T07:01:43.396Z,65.84
2023-03-12T07:04:10.196Z,65.56
2023-03-12T07:06:36.955Z,65.50
2023-03-12T07:09:05.107Z,64.45
2023-03-12T07:11:32.011Z,64.22
2023-03-12T07:13:58.886Z,64.06
2023-03-12T07:16:25.687Z,63.68
2023-03-12T07:18:52.499Z,63.55
2023-03-12T07:21:24.014Z,63.07
2023-03-12T07:23:51.583Z,62.71
2023-03-12T07:26:19.045Z,62.33
2023-03-12T07:28:46.151Z,60.48
2023-03-12T07:31:13.064Z,57.83
2023-03-12T07:33:40.013Z,56.78
2023-03-12T07:36:07.601Z,56.75
2023-03-12T07:38:34.402Z,56.17
2023-03-12T07:41:01.353Z,56.11
2023-03-12T07:43:28.254Z,56.95
2023-03-12T07:45:55.501Z,56.48
2023-03-12T07:48:22.411Z,56.35
2023-03-12T07:50:49.231Z,56.08
2023-03-12T07:53:17.037Z,53.93
2023-03-12T07:55:46.479Z,53.21
2023-03-12T07:58:15.671Z,51.82
2023-03-12T08:00:42.675Z,50.93
2023-03-12T08:03:09.657Z,49.18
2023-03-12T08:05:36.861Z,48.64
2023-03-12T08:08:04.113Z,47.15
2023-03-12T08:10:31.187Z,45.18
2023-03-12T08:12:58.105Z,45.01
2023-03-12T08:15:25.418Z,44.49
2023-03-12T08:17:52.287Z,44.16
2023-03-12T08:20:19.114Z,43.80
2023-03-12T08:22:45.835Z,42.15
2023-03-12T08:25:13.302Z,41.48
2023-03-12T08:27:40.096Z,40.69
2023-03-12T08:30:08.096Z,41.15
2023-03-12T08:32:36.230Z,39.62
2023-03-12T08:35:05.384Z,38.96
2023-03-12T08:37:33.010Z,38.82
2023-03-12T08:40:00.279Z,39.32
2023-03-12T08:42:27.173Z,38.48
2023-03-12T08:44:54.006Z,38.00
2023-03-12T08:47:20.785Z,37.95
2023-03-12T08:49:47.731Z,38.32
2023-03-12T08:52:14.515Z,37.85
2023-03-12T08:54:41.364Z,38.10
2023-03-12T08:57:08.315Z,38.40
2023-03-12T08:59:35.201Z,37.98
2023-03-12T09:02:01.950Z,37.55
2023-03-12T09:04:28.909Z,37.84
2023-03-12T09:06:55.790Z,38.44
2023-03-12T09:09:22.654Z,38.34
2023-03-12T09:11:49.448Z,38.24
2023-03-12T09:15:16.475Z,38.19
2023-03-12T09:17:03.393Z,38.11
2023-03-12T09:19:30.164Z,38.43
2023-03-12T09:21:57.757Z,39.56
2023-03-12T09:24:24.717Z,40.15
2023-03-12T09:26:51.484Z,39.28
2023-03-12T09:29:18.285Z,38.74
2023-03-12T09:31:45.018Z,38.85
2023-03-12T09:34:11.840Z,39.36
2023-03-12T09:36:38.751Z,40.09
2023-03-12T09:39:05.998Z,39.09
2023-03-12T09:41:37.847Z,39.22
2023-03-12T09:44:10.285Z,40.47
2023-03-12T09:46:45.266Z,40.82
2023-03-12T09:49:19.524Z,39.78
2023-03-12T09:51:51.740Z,41.20
2023-03-12T09:54:39.593Z,42.16
2023-03-12T09:57:13.093Z,41.60
2023-03-12T09:59:39.917Z,42.48
2023-03-12T10:02:29.227Z,43.06
2023-03-12T10:05:02.015Z,43.85
2023-03-12T10:07:45.532Z,43.14
2023-03-12T10:10:27.806Z,43.31
2023-03-12T10:12:54.553Z,42.55
2023-03-12T10:15:36.982Z,44.70
2023-03-12T10:18:08.214Z,45.91
2023-03-12T10:20:53.893Z,46.27
2023-03-12T10:23:33.029Z,45.60
2023-03-12T10:26:14.813Z,43.23
2023-03-12T10:28:44.201Z,43.02
2023-03-12T10:31:21.750Z,43.51
2023-03-12T10:33:54.464Z,43.72
2023-03-12T10:36:26.309Z,43.68
2023-03-12T10:38:53.049Z,43.64
2023-03-12T10:41:24.098Z,43.96
2023-03-12T10:43:51.343Z,44.01
2023-03-12T10:46:34.703Z,45.63
2023-03-12T10:49:25.948Z,45.40
2023-03-12T10:51:55.502Z,44.69
2023-03-12T10:54:30.742Z,44.11
2023-03-12T10:56:57.708Z,45.98
2023-03-12T10:59:29.562Z,45.45
2023-03-12T11:01:57.124Z,45.36
2023-03-12T11:04:30.283Z,44.93
2023-03-12T11:07:12.478Z,44.09
2023-03-12T11:09:39.354Z,45.71
2023-03-12T11:12:24.486Z,45.47
2023-03-12T11:14:51.449Z,46.18
2023-03-12T11:17:22.746Z,44.60
2023-03-12T11:19:49.517Z,43.93
2023-03-12T11:22:29.926Z,44.11
2023-03-12T11:24:59.716Z,44.45
2023-03-12T11:27:38.081Z,44.99
2023-03-12T11:30:07.460Z,46.32
2023-03-12T11:32:45.914Z,45.08
2023-03-12T11:35:16.069Z,44.83
2023-03-12T11:37:59.183Z,45.23
2023-03-12T11:40:46.121Z,44.01
2023-03-12T11:43:43.896Z,45.18
2023-03-12T11:46:22.941Z,45.99
2023-03-12T11:49:02.292Z,45.84
2023-03-12T11:51:33.548Z,43.69
2023-03-12T11:54:15.820Z,41.73
2023-03-12T11:56:51.683Z,41.89
2023-03-12T11:59:41.514Z,42.03
2023-03-12T12:02:38.968Z,41.96
2023-03-12T12:05:29.439Z,42.10
2023-03-12T12:08:16.111Z,41.73
2023-03-12T12:10:46.359Z,40.36
2023-03-12T12:13:18.079Z,39.25
2023-03-12T12:15:53.022Z,39.84
2023-03-12T12:18:38.193Z,38.57
2023-03-12T12:21:27.680Z,38.53
2023-03-12T12:24:10.300Z,39.14
2023-03-12T12:26:56.078Z,39.44
2023-03-12T12:29:45.757Z,38.08
2023-03-12T12:32:19.449Z,37.75
2023-03-12T12:35:01.677Z,37.83
2023-03-12T12:37:46.149Z,37.46
2023-03-12T12:40:31.430Z,38.07
2023-03-12T12:43:07.568Z,37.91
2023-03-12T12:45:40.524Z,38.25
2023-03-12T12:48:17.911Z,38.71
2023-03-12T12:50:48.090Z,38.25
2023-03-12T12:53:23.180Z,38.17
2023-03-12T12:56:00.887Z,36.37
2023-03-12T12:58:31.034Z,36.15
2023-03-12T13:01:00.798Z,35.99
2023-03-12T13:03:29.449Z,35.87
2023-03-12T13:05:59.021Z,36.94
2023-03-12T13:08:43.183Z,37.06
2023-03-12T13:11:18.697Z,37.66
2023-03-12T13:13:51.653Z,38.89
2023-03-12T13:16:35.014Z,37.79
2023-03-12T13:19:16.442Z,37.43
2023-03-12T13:21:54.388Z,37.13
2023-03-12T13:24:29.918Z,37.39
2023-03-12T13:27:15.211Z,37.60
2023-03-12T13:29:42.843Z,38.23
2023-03-12T13:32:37.249Z,37.99
2023-03-12T13:35:11.875Z,38.87
2023-03-12T13:37:54.071Z,38.73
2023-03-12T13:40:34.229Z,37.99
2023-03-12T13:43:11.699Z,38.12
2023-03-12T13:45:57.566Z,39.38
2023-03-12T13:48:25.037Z,39.14
2023-03-12T13:50:58.026Z,39.14
2023-03-12T13:53:35.767Z,38.40
2023-03-12T13:56:22.201Z,38.90
2023-03-12T13:59:05.644Z,38.92
2023-03-12T14:01:40.706Z,39.37
2023-03-12T14:04:20.665Z,40.06
2023-03-12T14:07:09.991Z,39.72
2023-03-12T14:09:50.020Z,39.32
2023-03-12T14:12:25.601Z,39.86
2023-03-12T14:15:08.979Z,39.64
2023-03-12T14:17:38.248Z,39.62
2023-03-12T14:20:13.927Z,40.16
2023-03-12T14:22:45.005Z,40.18
2023-03-12T14:25:26.270Z,39.15
2023-03-12T14:27:53.634Z,39.21
2023-03-12T14:30:20.593Z,39.25
2023-03-12T14:32:49.930Z,40.27
2023-03-12T14:35:22.216Z,40.65
2023-03-12T14:38:07.295Z,40.24
2023-03-12T14:40:38.814Z,41.20
2023-03-12T14:43:23.455Z,41.41
2023-03-12T14:45:52.373Z,41.82
2023-03-12T14:48:23.928Z,42.72
2023-03-12T14:50:50.898Z,42.95
2023-03-12T14:53:29.909Z,42.15
2023-03-12T14:56:13.758Z,42.08
2023-03-12T14:58:47.344Z,41.75
2023-03-12T15:01:19.355Z,42.52
2023-03-12T15:03:51.295Z,41.82
2023-03-12T15:06:25.653Z,42.65
2023-03-12T15:08:52.741Z,43.07
2023-03-12T15:11:24.358Z,43.53
2023-03-12T15:13:53.540Z,44.01
2023-03-12T15:16:22.043Z,43.72
2023-03-12T15:18:50.437Z,43.68
2023-03-12T15:21:18.105Z,44.54
2023-03-12T15:23:47.738Z,44.92
2023-03-12T15:26:22.002Z,45.26
2023-03-12T15:28:59.236Z,44.92
2023-03-12T15:31:26.563Z,45.10
2023-03-12T15:34:03.980Z,45.96
2023-03-12T15:36:33.573Z,46.16
2023-03-12T15:39:05.800Z,46.13
2023-03-12T15:41:43.538Z,46.59
2023-03-12T15:44:19.960Z,46.64
2023-03-12T15:46:49.400Z,46.41
2023-03-12T15:49:25.375Z,47.67
2023-03-12T15:51:59.887Z,46.97
2023-03-12T15:54:29.445Z,46.48
2023-03-12T15:57:18.182Z,46.76
2023-03-12T15:59:45.002Z,47.02
2023-03-12T16:02:13.140Z,47.28
2023-03-12T16:04:40.132Z,47.24
2023-03-12T16:07:12.194Z,46.90
2023-03-12T16:09:39.039Z,47.24
2023-03-12T16:12:06.177Z,47.51
2023-03-12T16:14:37.101Z,47.67
2023-03-12T16:17:03.902Z,47.27
2023-03-12T16:19:33.979Z,47.84
2023-03-12T16:22:00.946Z,47.72
2023-03-12T16:24:27.724Z,47.71
2023-03-12T16:26:58.301Z,47.93
2023-03-12T16:29:38.557Z,48.32
2023-03-12T16:32:15.899Z,48.71
2023-03-12T16:34:44.964Z,48.97
2023-03-12T16:37:13.020Z,48.60
2023-03-12T16:39:40.229Z,49.04
2023-03-12T16:42:15.798Z,48.92
2023-03-12T16:44:46.048Z,49.32
2023-03-12T16:47:14.501Z,48.74
2023-03-12T16:49:41.583Z,49.13
2023-03-12T16:52:19.051Z,49.73
2023-03-12T16:54:45.971Z,50.08
2023-03-12T16:57:19.505Z,49.74
2023-03-12T16:59:46.360Z,49.69
2023-03-12T17:02:16.770Z,49.12
2023-03-12T17:04:43.697Z,49.63
2023-03-12T17:07:10.682Z,49.79
2023-03-12T17:09:37.708Z,49.40
2023-03-12T17:12:04.621Z,49.24
2023-03-12T17:14:31.813Z,49.28
2023-03-12T17:16:58.601Z,49.52
2023-03-12T17:19:25.404Z,49.84
2023-03-12T17:21:52.660Z,50.01
2023-03-12T17:24:19.563Z,50.01
2023-03-12T17:26:46.591Z,49.96
2023-03-12T17:29:15.702Z,49.85
2023-03-12T17:31:42.536Z,50.21
2023-03-12T17:34:09.746Z,50.28
2023-03-12T17:36:38.018Z,50.71
2023-03-12T17:39:05.129Z,51.01
2023-03-12T17:41:33.292Z,50.93
2023-03-12T17:44:02.200Z,50.45
2023-03-12T17:46:30.787Z,50.94
2023-03-12T17:48:57.652Z,50.49
2023-03-12T17:51:24.813Z,50.62
2023-03-12T17:53:51.581Z,50.38
2023-03-12T17:56:18.528Z,50.19
2023-03-12T17:58:45.691Z,49.91
2023-03-12T18:01:13.618Z,50.15
2023-03-12T18:03:40.813Z,49.51
2023-03-12T18:06:07.629Z,49.50
2023-03-12T18:08:34.420Z,49.31
2023-03-12T18:11:03.034Z,48.91
2023-03-12T18:13:30.751Z,48.77
2023-03-12T18:15:58.980Z,49.09
2023-03-12T18:18:26.786Z,49.15
2023-03-12T18:20:54.362Z,48.97
2023-03-12T18:23:21.241Z,49.45
2023-03-12T18:25:47.976Z,49.53
2023-03-12T18:28:15.412Z,49.99
2023-03-12T18:30:44.972Z,50.00
2023-03-12T18:33:11.818Z,50.31
2023-03-12T18:35:38.718Z,50.49
2023-03-12T18:38:05.806Z,50.57
2023-03-12T18:40:33.216Z,50.74
2023-03-12T18:43:00.672Z,51.12
2023-03-12T18:45:28.078Z,51.17
2023-03-12T18:47:54.977Z,51.84
2023-03-12T18:50:22.536Z,52.06
2023-03-12T18:52:49.324Z,51.75
2023-03-12T18:55:16.315Z,52.50
2023-03-12T18:57:44.671Z,53.24
2023-03-12T19:00:14.682Z,54.53
2023-03-12T19:02:57.634Z,55.74
2023-03-12T19:05:24.408Z,55.90
2023-03-12T19:07:51.521Z,55.82
2023-03-12T19:10:18.510Z,55.35
2023-03-12T19:12:52.670Z,54.52
2023-03-12T19:15:21.884Z,54.68
2023-03-12T19:17:48.699Z,55.34
2023-03-12T19:20:15.870Z,55.82
2023-03-12T19:22:42.669Z,56.31
2023-03-12T19:25:09.646Z,56.73
2023-03-12T19:27:36.423Z,56.32
2023-03-12T19:30:04.110Z,56.17
2023-03-12T19:32:42.269Z,56.91
2023-03-12T19:35:11.333Z,57.15
2023-03-12T19:37:38.176Z,57.59
2023-03-12T19:40:05.942Z,57.62
2023-03-12T19:42:32.818Z,57.48
2023-03-12T19:44:59.701Z,56.84
2023-03-12T19:47:26.846Z,56.48
2023-03-12T19:49:53.985Z,56.14
2023-03-12T19:52:20.782Z,55.72
2023-03-12T19:55:01.459Z,55.62
2023-03-12T19:57:31.702Z,55.92
2023-03-12T19:59:58.576Z,56.47
2023-03-12T20:02:26.363Z,56.94
2023-03-12T20:04:53.299Z,57.43
2023-03-12T20:07:20.027Z,57.19
2023-03-12T20:09:46.865Z,57.14
2023-03-12T20:12:13.700Z,56.74
2023-03-12T20:14:42.650Z,56.83
2023-03-12T20:17:11.554Z,56.78
2023-03-12T20:19:39.005Z,56.67
2023-03-12T20:22:06.981Z,57.20
2023-03-12T20:24:34.158Z,57.62
2023-03-12T20:27:01.673Z,57.92
2023-03-12T20:29:28.469Z,57.92
2023-03-12T20:31:55.330Z,57.59
2023-03-12T20:34:22.573Z,57.85
2023-03-12T20:36:51.833Z,57.88
2023-03-12T20:39:18.622Z,58.13
2023-03-12T20:41:45.364Z,58.18
2023-03-12T20:44:12.221Z,57.52
2023-03-12T20:46:38.989Z,57.20
2023-03-12T20:49:05.938Z,57.30
2023-03-12T20:51:32.700Z,57.04
2023-03-12T20:53:59.445Z,57.18
2023-03-12T20:56:26.326Z,56.55
2023-03-12T20:58:53.993Z,56.31
2023-03-12T21:01:20.892Z,56.43
2023-03-12T21:03:47.842Z,56.20
2023-03-12T21:06:14.661Z,56.30
2023-03-12T21:08:41.374Z,56.47
2023-03-12T21:11:08.809Z,56.41
2023-03-12T21:13:36.399Z,56.52
2023-03-12T21:16:05.653Z,56.86
2023-03-12T21:18:32.610Z,56.94
2023-03-12T21:21:04.677Z,57.44
2023-03-12T21:23:32.467Z,57.49
2023-03-12T21:26:01.982Z,56.77
2023-03-12T21:28:29.325Z,56.05
2023-03-12T21:30:56.368Z,55.78
2023-03-12T21:33:23.174Z,55.48
2023-03-12T21:35:51.988Z,55.16
2023-03-12T21:38:19.458Z,55.04
2023-03-12T21:40:47.316Z,55.09
2023-03-12T21:43:14.053Z,55.25
2023-03-12T21:45:42.698Z,55.13
2023-03-12T21:48:09.643Z,55.05
2023-03-12T21:50:36.387Z,55.00
2023-03-12T21:53:06.894Z,55.23
2023-03-12T21:55:41.268Z,55.24
2023-03-12T21:58:08.316Z,55.41
2023-03-12T22:00:35.117Z,55.23
2023-03-12T22:03:01.948Z,54.75
2023-03-12T22:05:28.710Z,54.86
2023-03-12T22:07:55.501Z,54.74
2023-03-12T22:10:22.327Z,54.71
2023-03-12T22:12:49.121Z,54.32
2023-03-12T22:15:16.029Z,54.46
2023-03-12T22:17:42.942Z,54.20
2023-03-12T22:20:10.661Z,54.42
2023-03-12T22:22:37.497Z,54.44
2023-03-12T22:25:04.640Z,54.35
2023-03-12T22:27:31.390Z,54.02
2023-03-12T22:29:58.132Z,54.32
2023-03-12T22:32:25.859Z,54.44
2023-03-12T22:34:52.647Z,53.90
2023-03-12T22:37:19.402Z,53.79
2023-03-12T22:39:46.200Z,53.41
2023-03-12T22:42:12.966Z,53.06
2023-03-12T22:44:41.475Z,53.05
2023-03-12T22:47:08.696Z,52.93
2023-03-12T22:49:35.819Z,52.61
2023-03-12T22:52:02.627Z,52.24
2023-03-12T22:54:29.385Z,52.38
2023-03-12T22:56:56.100Z,52.66
2023-03-12T22:59:22.867Z,52.63
2023-03-12T23:01:49.689Z,53.06
2023-03-12T23:04:16.586Z,53.24
2023-03-12T23:06:44.218Z,53.12
2023-03-12T23:09:11.233Z,53.29
2023-03-12T23:11:38.954Z,53.45
2023-03-12T23:14:05.775Z,53.56
2023-03-12T23:16:32.627Z,53.79
2023-03-12T23:19:00.396Z,54.05
2023-03-12T23:21:27.239Z,54.35
2023-03-12T23:23:54.305Z,54.99
2023-03-12T23:26:24.052Z,55.31
2023-03-12T23:28:53.368Z,55.84
2023-03-12T23:31:21.357Z,56.26
2023-03-12T23:33:48.212Z,56.89
2023-03-12T23:36:18.891Z,57.44
2023-03-12T23:38:47.068Z,57.83
2023-03-12T23:41:16.854Z,58.05
2023-03-12T23:43:44.204Z,58.40
2023-03-12T23:46:12.133Z,58.61
2023-03-12T23:48:40.100Z,59.07
2023-03-12T23:51:09.889Z,59.31
2023-03-12T23:53:37.778Z,59.79
2023-03-12T23:56:08.112Z,60.33
2023-03-12T23:58:35.952Z,60.63
